ADDS METAR Data INFO
IDs: Format: Raw Decoded Include TAF

Data at: 1334 UTC 23 Jun 2018

PHTO 231323Z AUTO 25006KT 3SM -RA BR FEW007 BKN013 OVC020 21/20 A3004 RMK AO2 P0008 T02110200 TSNO
PHTO 231317Z AUTO 27006KT 2 1/2SM RA BR FEW009 OVC016 21/20 A3004 RMK AO2 VIS 1 3/4V3 P0006 T02110200 TSNO
PHTO 231314Z AUTO 27006KT 3SM RA BR BKN016 OVC022 21/20 A3004 RMK AO2 P0005 T02110200 TSNO
PHTO 231301Z AUTO 30005KT 2SM RA BR SCT016 BKN025 OVC032 21/20 A3004 RMK AO2 P0002 T02110200 TSNO
PHTO 231253Z AUTO 27005KT 2 1/2SM -RA BR SCT022 OVC033 21/20 A3004 RMK AO2 RAB1156 SLP171 P0002 T02110200 TSNO
PHTO 231153Z AUTO 00000KT 8SM FEW023 BKN030 OVC036 22/21 A3005 RMK AO2 RAB31E50 SLP174 P0001 60036 70061 T02220206 10250 20217 58010 TSNO
PHTO 231135Z AUTO 12004KT 3SM -RA BR FEW014 BKN027 OVC032 22/20 A3005 RMK AO2 RAB31 P0000 T02220200 TSNO
PHTO 231053Z AUTO 24005KT 10SM SCT017 BKN035 OVC043 22/20 A3005 RMK AO2 RAE31 SLP176 P0000 T02220200 TSNO
PHTO 230953Z AUTO VRB03KT 10SM -RA OVC018 22/20 A3007 RMK AO2 RAE20B38 SLP182 P0010 T02170200 402940206 TSNO
PHTO 230916Z AUTO 29007KT 3SM -RA BR OVC018 22/20 A3008 RMK AO2 P0010 T02170200 TSNO
PHTO 230908Z AUTO 27008KT 1 3/4SM +RA BR BKN016 OVC021 22/20 A3008 RMK AO2 P0000 T02170200 TSNO
PHTO 230853Z AUTO 29010KT 6SM -RA BR BKN022 OVC026 22/20 A3008 RMK AO2 RAB10 SLP183 P0025 60025 T02220200 51009 TSNO
PHTO 230835Z AUTO 35003KT 1 1/4SM +RA BR FEW027 OVC034 22/21 A3009 RMK AO2 RAB10 P0009 T02220206 TSNO
PHTO 230828Z AUTO 10010KT 2SM +RA BR BKN042 OVC065 22/21 A3009 RMK AO2 RAB10 P0003 T02220206 TSNO
PHTO 230753Z 08004KT 10SM FEW031 BKN060 OVC080 23/21 A3007 RMK AO2 RAB23E43 SLP180 P0000 T02330211
PHTO 230739Z 07007KT 8SM -RA FEW019 SCT031 OVC060 23/21 A3007 RMK AO2 RAB23 P0000 T02330211
PHTO 230727Z 08010KT 5SM RA BR SCT019 BKN028 OVC033 23/21 A3007 RMK AO2 RAB23 P0000 T02330211
PHTO 230653Z 05003KT 10SM BKN036 24/21 A3006 RMK AO2 SLP178 T02440211
PHTO 230627Z 06005KT 10SM FEW023 OVC032 24/21 A3006 RMK AO2 T02440211
PHTO 230612Z 07005KT 10SM BKN024 OVC055 25/21 A3006 RMK AO2 T02500211
PHTO 230553Z 06005KT 10SM FEW018 SCT026 OVC055 26/20 A3005 RMK AO2 SLP174 T02560200 10294 20256 53013
PHTO 230453Z 04007KT 10SM FEW026 BKN032 OVC046 26/20 A3003 RMK AO2 SLP167 T02610200
PHTO 230443Z 04009KT 10SM FEW026 BKN034 OVC045 26/20 A3003 RMK AO2 T02610200
PHTO 230429Z 07009G16KT 10SM BKN028 OVC035 26/20 A3002 RMK AO2 T02610200
PHTO 230353Z 05008KT 10SM BKN030 27/20 A3001 RMK AO2 SLP162 T02720200
PHTO 230349Z 04009KT 10SM BKN028 27/21 A3001 RMK AO2
PHTO 230316Z 04010KT 10SM FEW023 BKN030 27/21 A3001 RMK AO2 T02720206
PHTO 230253Z 03010KT 10SM FEW024 BKN029 28/21 A3001 RMK AO2 SLP159 T02830211 56006
PHTO 230246Z 04009KT 10SM SCT029 28/21 A3001 RMK AO2 T02780206
PHTO 230225Z 06008KT 10SM FEW023 BKN027 28/21 A3001 RMK AO2 T02780206
PHTO 230206Z 06008KT 10SM FEW025 BKN030 28/21 A3001 RMK AO2 T02780211
PHTO 230153Z 05009KT 360V080 10SM BKN029 29/21 A3001 RMK AO2 SLP160 T02890211
PHTO 230053Z 04009KT 10SM BKN029 28/21 A3001 RMK AO2 SLP162 T02830206
PHTO 230036Z 02009KT 10SM SCT029 29/21 A3002 RMK AO2 T02890206
PHTO 230010Z 06007KT 10SM BKN027 29/21 A3002 RMK AO2 T02890211
PHTO 222353Z 05010KT 10SM SCT026 29/21 A3002 RMK AO2 SLP165 T02890206 10289 20244 58009
PHTO 222253Z 04010KT 10SM FEW030 29/22 A3003 RMK AO2 SLP169 T02890217
PHTO 222153Z 07006KT 10SM CLR 28/21 A3004 RMK AO2 SLP171 T02830211
PHTO 222053Z 10007KT 10SM FEW033 28/20 A3005 RMK AO2 SLP174 T02830200 55000
PHTO 221953Z VRB04KT 10SM BKN038 28/19 A3004 RMK AO2 SLP172 T02830194
PHTO 221853Z 27005KT 10SM OVC090 27/20 A3005 RMK AO2 SLP173 T02670200
PHTO 221753Z 20004KT 10SM FEW030 SCT041 BKN090 25/20 A3005 RMK AO2 SLP174 60025 T02500200 10250 20206 53012
PHTO 221653Z 22004KT 10SM BKN075 OVC090 23/20 A3004 RMK AO2 SLP170 T02280200 $
PHTO 221553Z AUTO 27007KT 10SM BKN050 OVC060 22/21 A3003 RMK AO2 RAE51 SLP167 P0006 T02170206 TSNO $
PHTO 221526Z AUTO 27006KT 6SM -RA BR FEW025 BKN036 OVC045 22/21 A3003 RMK AO2 P0005 T02170206 TSNO $
PHTO 221504Z AUTO 26005KT 3SM -RA BR OVC027 21/20 A3002 RMK AO2 P0004 T02110200 TSNO $
PHTO 221453Z AUTO 26003KT 1 1/2SM +RA BR OVC027 21/20 A3002 RMK AO2 RAB07 SLP163 P0015 60019 T02110200 55002 TSNO $
PHTO 221439Z AUTO 16006KT 1 3/4SM +RA BR BKN029 OVC036 22/20 A3002 RMK AO2 RAB07 P0005 T02170200 TSNO $
PHTO 221432Z AUTO 17007KT 2SM RA BR BKN031 OVC041 21/19 A3001 RMK AO2 RAB07 P0003 T02110194 TSNO $
PHTO 221353Z AUTO 22007KT 10SM BKN046 BKN090 22/19 A3000 RMK AO2 SLP156 T02170189 TSNO $
PHTO 221253Z AUTO 24007KT 10SM SCT050 SCT060 BKN095 21/18 A3001 RMK AO2 RAE11 SLP159 P0004 T02110183 TSNO $
PHTO 221207Z AUTO 22006KT 8SM -RA BKN039 OVC075 21/19 A3002 RMK AO2 P0004 T02110189 TSNO $
PHTO 221153Z AUTO 20005KT 2SM +RA BR BKN039 OVC050 21/19 A3002 RMK AO2 RAE11B42 SLP165 P0002 60004 70007 T02110189 10256 20211 57013 TSNO $
PHTO 221053Z AUTO 00000KT 7SM -RA BKN042 OVC049 22/18 A3004 RMK AO2 RAB48 SLP169 P0000 T02220183 TSNO $
PHTO 220953Z AUTO 24005KT 10SM OVC055 23/19 A3005 RMK AO2 SLP175 T02280194 402940211 TSNO $
PHTO 220853Z AUTO 00000KT 10SM FEW025 BKN065 23/20 A3006 RMK AO2 SLP179 60002 T02280200 50011 TSNO $
PHTO 220753Z 24004KT 10SM CLR 23/20 A3007 RMK AO2 SLP179 T02330200
PHTO 220727Z 26004KT 10SM FEW025 SCT043 BKN060 24/21 A3006 RMK AO2 T02390211
PHTO 220653Z 22004KT 10SM SCT023 BKN029 BKN038 24/22 A3005 RMK AO2 RAB10E30 SLP174 P0002 T02440217
PHTO 220553Z 00000KT 10SM FEW033 26/19 A3003 RMK AO2 SLP167 T02560194 10294 20250 53016
PHTO 220453Z 06003KT 10SM CLR 26/20 A3001 RMK AO2 SLP162 T02560200
PHTO 220353Z 05007KT 10SM CLR 26/20 A2999 RMK AO2 SLP155 T02610200
PHTO 220253Z 05010KT 10SM SCT027 SCT038 28/21 A2998 RMK AO2 SLP152 T02780206 56007
PHTO 220153Z 03008KT 10SM FEW065 28/21 A2999 RMK AO2 SLP153 T02830206